sensor_id;sensor_type;location;lat;lon;timestamp;P1;durP1;ratioP1;P2;durP2;ratioP2
72960;SDS011;61141;46.204;19.774;2023-06-14T00:02:12;2.57;;;0.70;;
72960;SDS011;61141;46.204;19.774;2023-06-14T00:05:15;1.98;;;0.47;;
72960;SDS011;61141;46.204;19.774;2023-06-14T00:08:18;2.53;;;0.90;;
72960;SDS011;61141;46.204;19.774;2023-06-14T00:11:21;2.55;;;0.85;;
72960;SDS011;61141;46.204;19.774;2023-06-14T00:14:24;2.20;;;0.60;;
72960;SDS011;61141;46.204;19.774;2023-06-14T00:17:27;3.03;;;1.30;;
72960;SDS011;61141;46.204;19.774;2023-06-14T00:20:33;2.75;;;1.00;;
72960;SDS011;61141;46.204;19.774;2023-06-14T00:23:37;2.72;;;0.98;;
72960;SDS011;61141;46.204;19.774;2023-06-14T00:26:39;2.40;;;0.77;;
72960;SDS011;61141;46.204;19.774;2023-06-14T00:29:42;2.78;;;1.00;;
72960;SDS011;61141;46.204;19.774;2023-06-14T00:32:45;2.73;;;1.00;;
72960;SDS011;61141;46.204;19.774;2023-06-14T00:35:49;2.45;;;0.80;;
72960;SDS011;61141;46.204;19.774;2023-06-14T00:38:54;2.55;;;0.88;;
72960;SDS011;61141;46.204;19.774;2023-06-14T00:41:57;2.47;;;0.82;;
72960;SDS011;61141;46.204;19.774;2023-06-14T00:45:01;2.30;;;0.70;;
72960;SDS011;61141;46.204;19.774;2023-06-14T00:48:04;3.20;;;0.83;;
72960;SDS011;61141;46.204;19.774;2023-06-14T00:51:09;2.25;;;0.65;;
72960;SDS011;61141;46.204;19.774;2023-06-14T00:54:13;3.10;;;1.08;;
72960;SDS011;61141;46.204;19.774;2023-06-14T00:57:17;2.60;;;0.85;;
72960;SDS011;61141;46.204;19.774;2023-06-14T01:00:21;2.42;;;0.82;;
72960;SDS011;61141;46.204;19.774;2023-06-14T01:03:24;2.20;;;0.57;;
72960;SDS011;61141;46.204;19.774;2023-06-14T01:06:33;2.35;;;0.62;;
72960;SDS011;61141;46.204;19.774;2023-06-14T01:09:40;2.20;;;0.60;;
72960;SDS011;61141;46.204;19.774;2023-06-14T01:13:13;1.95;;;0.52;;
72960;SDS011;61141;46.204;19.774;2023-06-14T01:16:20;2.97;;;1.20;;
72960;SDS011;61141;46.204;19.774;2023-06-14T01:19:23;2.40;;;0.70;;
72960;SDS011;61141;46.204;19.774;2023-06-14T01:22:28;2.55;;;0.90;;
72960;SDS011;61141;46.204;19.774;2023-06-14T01:25:31;2.37;;;0.80;;
72960;SDS011;61141;46.204;19.774;2023-06-14T01:28:34;2.50;;;0.73;;
72960;SDS011;61141;46.204;19.774;2023-06-14T01:31:38;3.33;;;1.37;;
72960;SDS011;61141;46.204;19.774;2023-06-14T01:34:44;2.37;;;0.77;;
72960;SDS011;61141;46.204;19.774;2023-06-14T01:37:48;2.67;;;0.90;;
72960;SDS011;61141;46.204;19.774;2023-06-14T01:40:51;2.00;;;0.47;;
72960;SDS011;61141;46.204;19.774;2023-06-14T01:43:57;2.42;;;0.75;;
72960;SDS011;61141;46.204;19.774;2023-06-14T01:47:01;2.10;;;0.52;;
72960;SDS011;61141;46.204;19.774;2023-06-14T01:50:04;2.13;;;0.60;;
72960;SDS011;61141;46.204;19.774;2023-06-14T01:53:07;2.40;;;0.73;;
72960;SDS011;61141;46.204;19.774;2023-06-14T01:56:12;1.90;;;0.40;;
72960;SDS011;61141;46.204;19.774;2023-06-14T01:59:14;2.10;;;0.57;;
72960;SDS011;61141;46.204;19.774;2023-06-14T02:02:18;2.58;;;0.90;;
72960;SDS011;61141;46.204;19.774;2023-06-14T02:05:21;1.97;;;0.50;;
72960;SDS011;61141;46.204;19.774;2023-06-14T02:08:25;2.00;;;0.50;;
72960;SDS011;61141;46.204;19.774;2023-06-14T02:11:28;1.98;;;0.43;;
72960;SDS011;61141;46.204;19.774;2023-06-14T02:14:32;3.10;;;1.17;;
72960;SDS011;61141;46.204;19.774;2023-06-14T02:17:36;2.78;;;1.00;;
72960;SDS011;61141;46.204;19.774;2023-06-14T02:20:40;1.80;;;0.37;;
72960;SDS011;61141;46.204;19.774;2023-06-14T02:23:43;2.05;;;0.50;;
72960;SDS011;61141;46.204;19.774;2023-06-14T02:26:46;3.70;;;1.30;;
72960;SDS011;61141;46.204;19.774;2023-06-14T02:29:49;2.70;;;0.93;;
72960;SDS011;61141;46.204;19.774;2023-06-14T02:32:52;2.35;;;0.80;;
72960;SDS011;61141;46.204;19.774;2023-06-14T02:35:55;2.00;;;0.53;;
72960;SDS011;61141;46.204;19.774;2023-06-14T02:38:58;1.95;;;0.50;;
72960;SDS011;61141;46.204;19.774;2023-06-14T02:42:01;2.70;;;0.98;;
72960;SDS011;61141;46.204;19.774;2023-06-14T02:45:05;2.33;;;0.80;;
72960;SDS011;61141;46.204;19.774;2023-06-14T02:48:08;2.37;;;0.75;;
72960;SDS011;61141;46.204;19.774;2023-06-14T02:51:11;1.80;;;0.40;;
72960;SDS011;61141;46.204;19.774;2023-06-14T02:54:15;1.90;;;0.50;;
72960;SDS011;61141;46.204;19.774;2023-06-14T02:57:18;2.53;;;0.77;;
72960;SDS011;61141;46.204;19.774;2023-06-14T03:00:21;2.22;;;0.68;;
72960;SDS011;61141;46.204;19.774;2023-06-14T03:03:24;2.25;;;0.68;;
72960;SDS011;61141;46.204;19.774;2023-06-14T03:06:29;2.27;;;0.70;;
72960;SDS011;61141;46.204;19.774;2023-06-14T03:09:33;2.80;;;1.10;;
72960;SDS011;61141;46.204;19.774;2023-06-14T03:12:36;6.37;;;1.25;;
72960;SDS011;61141;46.204;19.774;2023-06-14T03:15:40;2.95;;;1.00;;
72960;SDS011;61141;46.204;19.774;2023-06-14T03:18:43;2.05;;;0.50;;
72960;SDS011;61141;46.204;19.774;2023-06-14T03:21:47;2.87;;;1.17;;
72960;SDS011;61141;46.204;19.774;2023-06-14T03:24:50;1.87;;;0.40;;
72960;SDS011;61141;46.204;19.774;2023-06-14T03:27:54;2.40;;;0.70;;
72960;SDS011;61141;46.204;19.774;2023-06-14T03:30:57;2.17;;;0.60;;
72960;SDS011;61141;46.204;19.774;2023-06-14T03:34:01;2.70;;;0.93;;
72960;SDS011;61141;46.204;19.774;2023-06-14T03:37:04;2.53;;;0.90;;
72960;SDS011;61141;46.204;19.774;2023-06-14T03:40:08;2.75;;;0.93;;
72960;SDS011;61141;46.204;19.774;2023-06-14T03:43:12;2.20;;;0.60;;
72960;SDS011;61141;46.204;19.774;2023-06-14T03:46:15;2.20;;;0.60;;
72960;SDS011;61141;46.204;19.774;2023-06-14T03:49:18;2.15;;;0.70;;
72960;SDS011;61141;46.204;19.774;2023-06-14T03:52:21;2.60;;;0.90;;
72960;SDS011;61141;46.204;19.774;2023-06-14T03:55:25;2.17;;;0.68;;
72960;SDS011;61141;46.204;19.774;2023-06-14T03:58:33;2.83;;;0.80;;
72960;SDS011;61141;46.204;19.774;2023-06-14T04:01:36;2.80;;;0.93;;
72960;SDS011;61141;46.204;19.774;2023-06-14T04:04:39;1.87;;;0.50;;
72960;SDS011;61141;46.204;19.774;2023-06-14T04:07:47;2.60;;;0.97;;
72960;SDS011;61141;46.204;19.774;2023-06-14T04:10:51;2.12;;;0.60;;
72960;SDS011;61141;46.204;19.774;2023-06-14T04:13:53;2.75;;;1.12;;
72960;SDS011;61141;46.204;19.774;2023-06-14T04:16:59;2.90;;;1.05;;
72960;SDS011;61141;46.204;19.774;2023-06-14T04:20:02;2.10;;;0.55;;
72960;SDS011;61141;46.204;19.774;2023-06-14T04:23:14;2.83;;;1.00;;
72960;SDS011;61141;46.204;19.774;2023-06-14T04:26:21;2.33;;;0.70;;
72960;SDS011;61141;46.204;19.774;2023-06-14T04:29:29;3.97;;;2.22;;
72960;SDS011;61141;46.204;19.774;2023-06-14T04:32:33;2.60;;;0.85;;
72960;SDS011;61141;46.204;19.774;2023-06-14T04:35:41;2.10;;;0.50;;
72960;SDS011;61141;46.204;19.774;2023-06-14T04:38:44;3.30;;;1.40;;
72960;SDS011;61141;46.204;19.774;2023-06-14T04:41:49;2.50;;;0.85;;
72960;SDS011;61141;46.204;19.774;2023-06-14T04:44:59;3.03;;;1.12;;
72960;SDS011;61141;46.204;19.774;2023-06-14T04:48:03;2.58;;;0.80;;
72960;SDS011;61141;46.204;19.774;2023-06-14T04:51:07;2.97;;;1.12;;
72960;SDS011;61141;46.204;19.774;2023-06-14T04:54:11;2.80;;;1.00;;
72960;SDS011;61141;46.204;19.774;2023-06-14T04:57:17;2.62;;;0.85;;
72960;SDS011;61141;46.204;19.774;2023-06-14T05:00:25;2.53;;;0.82;;
72960;SDS011;61141;46.204;19.774;2023-06-14T05:03:27;2.87;;;1.08;;
72960;SDS011;61141;46.204;19.774;2023-06-14T05:06:33;2.78;;;1.12;;
72960;SDS011;61141;46.204;19.774;2023-06-14T05:09:36;2.43;;;0.70;;
72960;SDS011;61141;46.204;19.774;2023-06-14T05:12:40;3.33;;;1.17;;
72960;SDS011;61141;46.204;19.774;2023-06-14T05:15:43;3.12;;;1.15;;
72960;SDS011;61141;46.204;19.774;2023-06-14T05:18:47;3.90;;;1.80;;
72960;SDS011;61141;46.204;19.774;2023-06-14T05:21:50;3.10;;;1.20;;
72960;SDS011;61141;46.204;19.774;2023-06-14T05:24:54;3.10;;;1.20;;
72960;SDS011;61141;46.204;19.774;2023-06-14T05:27:57;3.92;;;1.67;;
72960;SDS011;61141;46.204;19.774;2023-06-14T05:31:00;2.35;;;0.62;;
72960;SDS011;61141;46.204;19.774;2023-06-14T05:34:03;3.62;;;1.65;;
72960;SDS011;61141;46.204;19.774;2023-06-14T05:37:06;3.40;;;1.40;;
72960;SDS011;61141;46.204;19.774;2023-06-14T05:40:09;4.33;;;2.27;;
72960;SDS011;61141;46.204;19.774;2023-06-14T05:43:13;2.75;;;0.90;;
72960;SDS011;61141;46.204;19.774;2023-06-14T05:46:15;2.95;;;1.10;;
72960;SDS011;61141;46.204;19.774;2023-06-14T05:49:24;3.30;;;1.33;;
72960;SDS011;61141;46.204;19.774;2023-06-14T05:52:27;2.37;;;0.57;;
72960;SDS011;61141;46.204;19.774;2023-06-14T05:55:30;3.37;;;1.37;;
72960;SDS011;61141;46.204;19.774;2023-06-14T05:58:33;3.50;;;1.37;;
72960;SDS011;61141;46.204;19.774;2023-06-14T06:01:36;3.75;;;1.67;;
72960;SDS011;61141;46.204;19.774;2023-06-14T06:04:40;5.05;;;1.85;;
72960;SDS011;61141;46.204;19.774;2023-06-14T06:07:43;3.17;;;1.23;;
72960;SDS011;61141;46.204;19.774;2023-06-14T06:10:48;3.10;;;1.10;;
72960;SDS011;61141;46.204;19.774;2023-06-14T06:13:50;3.25;;;1.25;;
72960;SDS011;61141;46.204;19.774;2023-06-14T06:16:54;5.30;;;2.00;;
72960;SDS011;61141;46.204;19.774;2023-06-14T06:19:57;2.80;;;0.88;;
72960;SDS011;61141;46.204;19.774;2023-06-14T06:23:00;3.20;;;1.20;;
72960;SDS011;61141;46.204;19.774;2023-06-14T06:26:03;3.20;;;1.20;;
72960;SDS011;61141;46.204;19.774;2023-06-14T06:29:06;3.22;;;1.20;;
72960;SDS011;61141;46.204;19.774;2023-06-14T06:32:09;4.22;;;1.95;;
72960;SDS011;61141;46.204;19.774;2023-06-14T06:35:13;4.28;;;1.40;;
72960;SDS011;61141;46.204;19.774;2023-06-14T06:38:16;3.80;;;1.75;;
72960;SDS011;61141;46.204;19.774;2023-06-14T06:41:21;3.70;;;1.57;;
72960;SDS011;61141;46.204;19.774;2023-06-14T06:44:24;3.95;;;1.35;;
72960;SDS011;61141;46.204;19.774;2023-06-14T06:47:27;3.33;;;1.05;;
72960;SDS011;61141;46.204;19.774;2023-06-14T06:50:30;3.00;;;1.05;;
72960;SDS011;61141;46.204;19.774;2023-06-14T06:53:33;3.17;;;1.17;;
72960;SDS011;61141;46.204;19.774;2023-06-14T06:56:47;2.83;;;0.87;;
72960;SDS011;61141;46.204;19.774;2023-06-14T06:59:50;3.95;;;1.70;;
72960;SDS011;61141;46.204;19.774;2023-06-14T07:02:53;3.92;;;1.85;;
72960;SDS011;61141;46.204;19.774;2023-06-14T07:05:58;3.70;;;1.60;;
72960;SDS011;61141;46.204;19.774;2023-06-14T07:09:02;3.72;;;1.62;;
72960;SDS011;61141;46.204;19.774;2023-06-14T07:12:07;3.40;;;1.30;;
72960;SDS011;61141;46.204;19.774;2023-06-14T07:15:10;3.47;;;1.25;;
72960;SDS011;61141;46.204;19.774;2023-06-14T07:18:14;3.60;;;1.37;;
72960;SDS011;61141;46.204;19.774;2023-06-14T07:21:18;3.35;;;1.30;;
72960;SDS011;61141;46.204;19.774;2023-06-14T07:24:21;3.25;;;1.17;;
72960;SDS011;61141;46.204;19.774;2023-06-14T07:27:23;5.13;;;2.30;;
72960;SDS011;61141;46.204;19.774;2023-06-14T07:30:27;3.70;;;1.70;;
72960;SDS011;61141;46.204;19.774;2023-06-14T07:33:32;3.67;;;1.60;;
72960;SDS011;61141;46.204;19.774;2023-06-14T07:36:35;3.83;;;1.58;;
72960;SDS011;61141;46.204;19.774;2023-06-14T07:39:39;3.47;;;1.35;;
72960;SDS011;61141;46.204;19.774;2023-06-14T07:42:42;3.93;;;1.20;;
72960;SDS011;61141;46.204;19.774;2023-06-14T07:45:44;3.17;;;1.12;;
72960;SDS011;61141;46.204;19.774;2023-06-14T07:49:07;4.05;;;1.77;;
72960;SDS011;61141;46.204;19.774;2023-06-14T07:52:10;3.95;;;1.45;;
72960;SDS011;61141;46.204;19.774;2023-06-14T07:55:13;3.37;;;1.35;;
72960;SDS011;61141;46.204;19.774;2023-06-14T07:58:18;3.83;;;1.57;;
72960;SDS011;61141;46.204;19.774;2023-06-14T08:01:21;3.65;;;1.48;;
72960;SDS011;61141;46.204;19.774;2023-06-14T08:04:26;3.75;;;1.75;;
72960;SDS011;61141;46.204;19.774;2023-06-14T08:07:29;3.80;;;1.52;;
72960;SDS011;61141;46.204;19.774;2023-06-14T08:10:33;3.40;;;1.30;;
72960;SDS011;61141;46.204;19.774;2023-06-14T08:13:35;3.47;;;1.40;;
72960;SDS011;61141;46.204;19.774;2023-06-14T08:16:38;3.80;;;1.77;;
72960;SDS011;61141;46.204;19.774;2023-06-14T08:19:41;5.25;;;1.65;;
72960;SDS011;61141;46.204;19.774;2023-06-14T08:22:44;3.65;;;1.52;;
72960;SDS011;61141;46.204;19.774;2023-06-14T08:25:49;3.72;;;1.70;;
72960;SDS011;61141;46.204;19.774;2023-06-14T08:28:52;3.30;;;1.27;;
72960;SDS011;61141;46.204;19.774;2023-06-14T08:31:54;3.70;;;1.60;;
72960;SDS011;61141;46.204;19.774;2023-06-14T08:34:57;3.87;;;1.50;;
72960;SDS011;61141;46.204;19.774;2023-06-14T08:38:07;4.90;;;2.30;;
72960;SDS011;61141;46.204;19.774;2023-06-14T08:41:11;3.67;;;1.55;;
72960;SDS011;61141;46.204;19.774;2023-06-14T08:44:18;3.33;;;1.13;;
72960;SDS011;61141;46.204;19.774;2023-06-14T08:47:21;2.67;;;0.80;;
72960;SDS011;61141;46.204;19.774;2023-06-14T08:50:28;4.10;;;1.90;;
72960;SDS011;61141;46.204;19.774;2023-06-14T08:53:35;3.72;;;1.85;;
72960;SDS011;61141;46.204;19.774;2023-06-14T08:56:44;5.82;;;1.80;;
72960;SDS011;61141;46.204;19.774;2023-06-14T08:59:48;3.67;;;1.63;;
72960;SDS011;61141;46.204;19.774;2023-06-14T09:02:54;3.90;;;1.70;;
72960;SDS011;61141;46.204;19.774;2023-06-14T09:06:01;4.03;;;1.95;;
72960;SDS011;61141;46.204;19.774;2023-06-14T09:09:04;4.30;;;1.70;;
72960;SDS011;61141;46.204;19.774;2023-06-14T09:12:08;7.35;;;1.42;;
72960;SDS011;61141;46.204;19.774;2023-06-14T09:15:13;3.93;;;1.90;;
72960;SDS011;61141;46.204;19.774;2023-06-14T09:18:16;3.17;;;1.17;;
72960;SDS011;61141;46.204;19.774;2023-06-14T09:21:19;6.30;;;1.95;;
72960;SDS011;61141;46.204;19.774;2023-06-14T09:24:24;3.53;;;1.48;;
72960;SDS011;61141;46.204;19.774;2023-06-14T09:27:29;4.03;;;1.95;;
72960;SDS011;61141;46.204;19.774;2023-06-14T09:30:38;3.70;;;1.53;;
72960;SDS011;61141;46.204;19.774;2023-06-14T09:33:41;3.80;;;1.65;;
72960;SDS011;61141;46.204;19.774;2023-06-14T09:36:50;3.72;;;1.60;;
72960;SDS011;61141;46.204;19.774;2023-06-14T09:39:53;4.40;;;2.20;;
72960;SDS011;61141;46.204;19.774;2023-06-14T09:42:57;3.08;;;1.08;;
72960;SDS011;61141;46.204;19.774;2023-06-14T09:46:00;3.97;;;1.90;;
72960;SDS011;61141;46.204;19.774;2023-06-14T09:49:04;4.05;;;2.10;;
72960;SDS011;61141;46.204;19.774;2023-06-14T09:52:13;4.30;;;2.10;;
72960;SDS011;61141;46.204;19.774;2023-06-14T09:55:19;3.40;;;1.33;;
72960;SDS011;61141;46.204;19.774;2023-06-14T09:58:22;3.22;;;1.12;;
72960;SDS011;61141;46.204;19.774;2023-06-14T10:01:30;4.03;;;1.77;;
72960;SDS011;61141;46.204;19.774;2023-06-14T10:04:33;5.05;;;2.05;;
72960;SDS011;61141;46.204;19.774;2023-06-14T10:07:44;3.72;;;1.70;;
72960;SDS011;61141;46.204;19.774;2023-06-14T10:10:57;3.25;;;1.25;;
72960;SDS011;61141;46.204;19.774;2023-06-14T10:14:00;3.67;;;1.75;;
72960;SDS011;61141;46.204;19.774;2023-06-14T10:17:07;2.90;;;0.97;;
72960;SDS011;61141;46.204;19.774;2023-06-14T10:23:22;3.95;;;1.87;;
72960;SDS011;61141;46.204;19.774;2023-06-14T10:26:27;2.92;;;0.95;;
72960;SDS011;61141;46.204;19.774;2023-06-14T10:29:30;4.18;;;2.15;;
72960;SDS011;61141;46.204;19.774;2023-06-14T10:32:35;4.07;;;1.57;;
72960;SDS011;61141;46.204;19.774;2023-06-14T10:36:25;3.92;;;1.87;;
72960;SDS011;61141;46.204;19.774;2023-06-14T10:39:42;4.40;;;2.03;;
72960;SDS011;61141;46.204;19.774;2023-06-14T10:42:51;5.78;;;1.92;;
72960;SDS011;61141;46.204;19.774;2023-06-14T10:49:42;4.07;;;2.00;;
72960;SDS011;61141;46.204;19.774;2023-06-14T10:52:46;3.87;;;1.98;;
72960;SDS011;61141;46.204;19.774;2023-06-14T10:55:48;4.00;;;1.90;;
72960;SDS011;61141;46.204;19.774;2023-06-14T10:58:51;4.45;;;2.08;;
72960;SDS011;61141;46.204;19.774;2023-06-14T11:01:57;4.12;;;1.65;;
72960;SDS011;61141;46.204;19.774;2023-06-14T11:05:23;4.53;;;2.00;;
72960;SDS011;61141;46.204;19.774;2023-06-14T11:11:59;4.20;;;1.98;;
72960;SDS011;61141;46.204;19.774;2023-06-14T11:15:05;3.67;;;1.60;;
72960;SDS011;61141;46.204;19.774;2023-06-14T11:18:08;3.60;;;1.58;;
72960;SDS011;61141;46.204;19.774;2023-06-14T11:21:17;8.27;;;2.00;;
72960;SDS011;61141;46.204;19.774;2023-06-14T11:24:23;4.18;;;2.00;;
72960;SDS011;61141;46.204;19.774;2023-06-14T11:27:27;3.50;;;1.52;;
72960;SDS011;61141;46.204;19.774;2023-06-14T11:30:29;3.72;;;1.62;;
72960;SDS011;61141;46.204;19.774;2023-06-14T11:33:33;4.60;;;2.55;;
72960;SDS011;61141;46.204;19.774;2023-06-14T11:36:37;3.97;;;1.90;;
72960;SDS011;61141;46.204;19.774;2023-06-14T11:39:44;3.80;;;1.80;;
72960;SDS011;61141;46.204;19.774;2023-06-14T11:42:47;3.85;;;1.65;;
72960;SDS011;61141;46.204;19.774;2023-06-14T11:45:50;3.97;;;1.90;;
72960;SDS011;61141;46.204;19.774;2023-06-14T11:49:09;3.78;;;1.73;;
72960;SDS011;61141;46.204;19.774;2023-06-14T11:52:13;3.83;;;1.83;;
72960;SDS011;61141;46.204;19.774;2023-06-14T11:55:16;3.62;;;1.60;;
72960;SDS011;61141;46.204;19.774;2023-06-14T11:58:19;4.05;;;1.92;;
72960;SDS011;61141;46.204;19.774;2023-06-14T12:01:22;4.85;;;2.95;;
72960;SDS011;61141;46.204;19.774;2023-06-14T12:04:26;4.72;;;2.45;;
72960;SDS011;61141;46.204;19.774;2023-06-14T12:07:30;5.37;;;2.37;;
72960;SDS011;61141;46.204;19.774;2023-06-14T12:10:40;3.75;;;1.65;;
72960;SDS011;61141;46.204;19.774;2023-06-14T12:13:47;4.43;;;2.40;;
72960;SDS011;61141;46.204;19.774;2023-06-14T12:16:51;4.68;;;2.47;;
72960;SDS011;61141;46.204;19.774;2023-06-14T12:19:54;4.65;;;2.37;;
72960;SDS011;61141;46.204;19.774;2023-06-14T12:23:02;4.37;;;2.37;;
72960;SDS011;61141;46.204;19.774;2023-06-14T12:26:06;4.78;;;2.78;;
72960;SDS011;61141;46.204;19.774;2023-06-14T12:29:13;4.40;;;1.87;;
72960;SDS011;61141;46.204;19.774;2023-06-14T12:32:15;4.37;;;2.00;;
72960;SDS011;61141;46.204;19.774;2023-06-14T12:35:19;3.83;;;1.65;;
72960;SDS011;61141;46.204;19.774;2023-06-14T12:38:21;4.13;;;2.10;;
72960;SDS011;61141;46.204;19.774;2023-06-14T12:41:25;4.37;;;1.98;;
72960;SDS011;61141;46.204;19.774;2023-06-14T12:44:29;4.28;;;1.95;;
72960;SDS011;61141;46.204;19.774;2023-06-14T12:47:32;4.07;;;1.85;;
72960;SDS011;61141;46.204;19.774;2023-06-14T12:50:35;3.95;;;1.70;;
72960;SDS011;61141;46.204;19.774;2023-06-14T12:53:38;4.33;;;2.23;;
72960;SDS011;61141;46.204;19.774;2023-06-14T12:56:41;4.03;;;1.58;;
72960;SDS011;61141;46.204;19.774;2023-06-14T12:59:45;4.45;;;2.22;;
72960;SDS011;61141;46.204;19.774;2023-06-14T13:02:48;4.05;;;2.03;;
72960;SDS011;61141;46.204;19.774;2023-06-14T13:05:51;4.12;;;2.10;;
72960;SDS011;61141;46.204;19.774;2023-06-14T13:08:54;4.30;;;2.10;;
72960;SDS011;61141;46.204;19.774;2023-06-14T13:12:00;4.95;;;2.12;;
72960;SDS011;61141;46.204;19.774;2023-06-14T13:15:03;4.25;;;2.05;;
72960;SDS011;61141;46.204;19.774;2023-06-14T13:18:07;4.37;;;2.22;;
72960;SDS011;61141;46.204;19.774;2023-06-14T13:21:10;4.18;;;2.03;;
72960;SDS011;61141;46.204;19.774;2023-06-14T13:24:13;3.57;;;1.57;;
72960;SDS011;61141;46.204;19.774;2023-06-14T13:27:16;3.95;;;1.40;;
72960;SDS011;61141;46.204;19.774;2023-06-14T13:30:19;4.50;;;2.40;;
72960;SDS011;61141;46.204;19.774;2023-06-14T13:33:22;4.35;;;2.17;;
72960;SDS011;61141;46.204;19.774;2023-06-14T13:36:26;4.82;;;2.58;;
72960;SDS011;61141;46.204;19.774;2023-06-14T13:39:29;4.20;;;2.10;;
72960;SDS011;61141;46.204;19.774;2023-06-14T13:42:32;4.10;;;2.03;;
72960;SDS011;61141;46.204;19.774;2023-06-14T13:45:35;4.03;;;1.85;;
72960;SDS011;61141;46.204;19.774;2023-06-14T13:48:38;3.80;;;1.73;;
72960;SDS011;61141;46.204;19.774;2023-06-14T13:51:41;4.07;;;1.75;;
72960;SDS011;61141;46.204;19.774;2023-06-14T13:54:44;4.40;;;2.07;;
72960;SDS011;61141;46.204;19.774;2023-06-14T13:57:50;3.87;;;1.85;;
72960;SDS011;61141;46.204;19.774;2023-06-14T14:00:53;5.30;;;1.20;;
72960;SDS011;61141;46.204;19.774;2023-06-14T14:03:57;3.20;;;1.10;;
72960;SDS011;61141;46.204;19.774;2023-06-14T14:07:01;3.70;;;1.67;;
72960;SDS011;61141;46.204;19.774;2023-06-14T14:10:06;4.17;;;2.20;;
72960;SDS011;61141;46.204;19.774;2023-06-14T14:13:09;4.80;;;2.53;;
72960;SDS011;61141;46.204;19.774;2023-06-14T14:16:12;4.55;;;1.98;;
72960;SDS011;61141;46.204;19.774;2023-06-14T14:19:15;6.22;;;3.15;;
72960;SDS011;61141;46.204;19.774;2023-06-14T14:22:18;3.53;;;1.45;;
72960;SDS011;61141;46.204;19.774;2023-06-14T14:25:21;3.33;;;1.40;;
72960;SDS011;61141;46.204;19.774;2023-06-14T14:28:24;3.75;;;1.75;;
72960;SDS011;61141;46.204;19.774;2023-06-14T14:31:28;4.00;;;1.77;;
72960;SDS011;61141;46.204;19.774;2023-06-14T14:34:31;4.35;;;2.20;;
72960;SDS011;61141;46.204;19.774;2023-06-14T14:37:34;4.53;;;2.25;;
72960;SDS011;61141;46.204;19.774;2023-06-14T14:40:37;4.30;;;2.53;;
72960;SDS011;61141;46.204;19.774;2023-06-14T14:43:40;4.82;;;2.75;;
72960;SDS011;61141;46.204;19.774;2023-06-14T14:46:43;4.45;;;1.95;;
72960;SDS011;61141;46.204;19.774;2023-06-14T14:49:46;4.65;;;2.53;;
72960;SDS011;61141;46.204;19.774;2023-06-14T14:52:49;4.28;;;2.17;;
72960;SDS011;61141;46.204;19.774;2023-06-14T14:55:52;4.27;;;2.37;;
72960;SDS011;61141;46.204;19.774;2023-06-14T14:58:55;4.57;;;2.50;;
72960;SDS011;61141;46.204;19.774;2023-06-14T15:01:58;4.12;;;2.22;;
72960;SDS011;61141;46.204;19.774;2023-06-14T15:05:01;4.03;;;2.12;;
72960;SDS011;61141;46.204;19.774;2023-06-14T15:08:05;4.03;;;1.92;;
72960;SDS011;61141;46.204;19.774;2023-06-14T15:11:14;3.97;;;1.77;;
72960;SDS011;61141;46.204;19.774;2023-06-14T15:14:16;4.22;;;1.90;;
72960;SDS011;61141;46.204;19.774;2023-06-14T15:17:20;5.10;;;3.10;;
72960;SDS011;61141;46.204;19.774;2023-06-14T15:20:23;4.10;;;2.00;;
72960;SDS011;61141;46.204;19.774;2023-06-14T15:23:26;4.47;;;1.67;;
72960;SDS011;61141;46.204;19.774;2023-06-14T15:26:29;4.03;;;2.03;;
72960;SDS011;61141;46.204;19.774;2023-06-14T15:29:31;4.22;;;1.55;;
72960;SDS011;61141;46.204;19.774;2023-06-14T15:32:34;3.83;;;1.60;;
72960;SDS011;61141;46.204;19.774;2023-06-14T15:35:37;4.07;;;1.85;;
72960;SDS011;61141;46.204;19.774;2023-06-14T15:38:42;3.97;;;1.92;;
72960;SDS011;61141;46.204;19.774;2023-06-14T15:41:46;3.37;;;1.37;;
72960;SDS011;61141;46.204;19.774;2023-06-14T15:44:48;4.07;;;2.00;;
72960;SDS011;61141;46.204;19.774;2023-06-14T15:47:51;4.25;;;2.20;;
72960;SDS011;61141;46.204;19.774;2023-06-14T15:50:54;4.28;;;2.03;;
72960;SDS011;61141;46.204;19.774;2023-06-14T15:53:57;4.22;;;1.73;;
72960;SDS011;61141;46.204;19.774;2023-06-14T15:57:00;3.80;;;1.73;;
72960;SDS011;61141;46.204;19.774;2023-06-14T16:00:03;3.55;;;1.50;;
72960;SDS011;61141;46.204;19.774;2023-06-14T16:03:07;4.03;;;2.05;;
72960;SDS011;61141;46.204;19.774;2023-06-14T16:06:10;3.72;;;1.45;;
72960;SDS011;61141;46.204;19.774;2023-06-14T16:09:13;4.25;;;2.12;;
72960;SDS011;61141;46.204;19.774;2023-06-14T16:12:16;3.70;;;1.63;;
72960;SDS011;61141;46.204;19.774;2023-06-14T16:15:18;4.20;;;1.98;;
72960;SDS011;61141;46.204;19.774;2023-06-14T16:18:21;4.28;;;2.08;;
72960;SDS011;61141;46.204;19.774;2023-06-14T16:21:24;3.85;;;1.70;;
72960;SDS011;61141;46.204;19.774;2023-06-14T16:24:28;5.00;;;2.70;;
72960;SDS011;61141;46.204;19.774;2023-06-14T16:27:31;4.20;;;2.07;;
72960;SDS011;61141;46.204;19.774;2023-06-14T16:30:34;4.30;;;2.30;;
72960;SDS011;61141;46.204;19.774;2023-06-14T16:33:37;4.12;;;2.08;;
72960;SDS011;61141;46.204;19.774;2023-06-14T16:36:40;4.53;;;2.28;;
72960;SDS011;61141;46.204;19.774;2023-06-14T16:39:43;3.83;;;1.75;;
72960;SDS011;61141;46.204;19.774;2023-06-14T16:42:46;4.07;;;1.97;;
72960;SDS011;61141;46.204;19.774;2023-06-14T16:45:49;4.03;;;1.95;;
72960;SDS011;61141;46.204;19.774;2023-06-14T16:48:52;4.28;;;2.33;;
72960;SDS011;61141;46.204;19.774;2023-06-14T16:51:55;4.45;;;2.10;;
72960;SDS011;61141;46.204;19.774;2023-06-14T16:54:58;3.90;;;1.85;;
72960;SDS011;61141;46.204;19.774;2023-06-14T16:58:00;3.53;;;1.40;;
72960;SDS011;61141;46.204;19.774;2023-06-14T17:01:04;3.95;;;1.92;;
72960;SDS011;61141;46.204;19.774;2023-06-14T17:04:07;4.53;;;1.98;;
72960;SDS011;61141;46.204;19.774;2023-06-14T17:07:11;4.03;;;2.03;;
72960;SDS011;61141;46.204;19.774;2023-06-14T17:10:14;3.58;;;1.60;;
72960;SDS011;61141;46.204;19.774;2023-06-14T17:13:17;3.73;;;1.47;;
72960;SDS011;61141;46.204;19.774;2023-06-14T17:16:20;3.67;;;1.58;;
72960;SDS011;61141;46.204;19.774;2023-06-14T17:19:23;4.20;;;2.10;;
72960;SDS011;61141;46.204;19.774;2023-06-14T17:22:26;3.72;;;1.30;;
72960;SDS011;61141;46.204;19.774;2023-06-14T17:25:29;3.87;;;1.85;;
72960;SDS011;61141;46.204;19.774;2023-06-14T17:28:33;3.57;;;1.10;;
72960;SDS011;61141;46.204;19.774;2023-06-14T17:31:37;3.58;;;1.37;;
72960;SDS011;61141;46.204;19.774;2023-06-14T17:34:40;4.12;;;1.60;;
72960;SDS011;61141;46.204;19.774;2023-06-14T17:37:43;3.70;;;1.55;;
72960;SDS011;61141;46.204;19.774;2023-06-14T17:40:45;4.07;;;1.85;;
72960;SDS011;61141;46.204;19.774;2023-06-14T17:43:52;3.53;;;1.37;;
72960;SDS011;61141;46.204;19.774;2023-06-14T17:46:55;3.20;;;1.17;;
72960;SDS011;61141;46.204;19.774;2023-06-14T17:49:58;3.83;;;1.85;;
72960;SDS011;61141;46.204;19.774;2023-06-14T17:53:02;3.87;;;1.73;;
72960;SDS011;61141;46.204;19.774;2023-06-14T17:56:08;4.10;;;1.62;;
72960;SDS011;61141;46.204;19.774;2023-06-14T17:59:10;3.50;;;1.50;;
72960;SDS011;61141;46.204;19.774;2023-06-14T18:02:13;3.58;;;1.40;;
72960;SDS011;61141;46.204;19.774;2023-06-14T18:05:17;4.05;;;1.85;;
72960;SDS011;61141;46.204;19.774;2023-06-14T18:08:19;3.87;;;1.77;;
72960;SDS011;61141;46.204;19.774;2023-06-14T18:11:22;3.65;;;1.58;;
72960;SDS011;61141;46.204;19.774;2023-06-14T18:14:26;3.17;;;1.10;;
72960;SDS011;61141;46.204;19.774;2023-06-14T18:17:29;3.58;;;1.48;;
72960;SDS011;61141;46.204;19.774;2023-06-14T18:20:32;3.40;;;1.45;;
72960;SDS011;61141;46.204;19.774;2023-06-14T18:23:35;2.90;;;0.70;;